ZBYN

Taiyuan Wusu Airport

Taiyuan, China
TAF ZBYN 181903Z 1900/1924 36004MPS 5000 HZ NSC TX03/1907Z TNM12/22Z
Issued Valid From Valid To
Jan-18 @ 19:03 UTC
(7 hours ago)
Jan-19 @ 00:00 UTC
(2 hours ago)
Jan-20 @ 00:00 UTC
(in 22 hours)
Jan-19 @ 00:00 to Jan-20 @ 00:00
TAF ZBYN 181903Z 1900/1924 36004MPS 5000 HZ NSC TX03/1907Z TNM12/22Z
Wind Visibility Clouds Conditions
360° at 8 knots 5,005 meters
  • No significant clouds
  • Haze
TAF ZBYN 181903Z 1900/1924 36004MPS 5000 HZ NSC TX03/1907Z TNM12/22Z
Issued Jan-18 @ 19:03 UTC
(7 hours ago)
Valid From Jan-19 @ 00:00 UTC
(2 hours ago)
Valid To Jan-20 @ 00:00 UTC
(in 22 hours)
Jan-19 @ 00:00 - Jan-20 @ 00:00
Wind Visibility
360° at 8 knots 5,005 meters
Clouds
  • No significant clouds
Conditions
  • Haze